sensor_id;sensor_type;location;lat;lon;timestamp;pressure;altitude;pressure_sealevel;temperature;humidity
54808;BME280;40708;50.364;7.550;2023-05-16T00:02:00;100901.41;;;12.37;100.00
54808;BME280;40708;50.364;7.550;2023-05-16T00:04:26;100921.81;;;12.32;100.00
54808;BME280;40708;50.364;7.550;2023-05-16T00:06:51;100914.75;;;12.38;100.00
54808;BME280;40708;50.364;7.550;2023-05-16T00:09:16;100932.47;;;12.23;100.00
54808;BME280;40708;50.364;7.550;2023-05-16T00:11:42;100930.69;;;12.28;100.00
54808;BME280;40708;50.364;7.550;2023-05-16T00:14:07;100931.59;;;12.43;100.00
54808;BME280;40708;50.364;7.550;2023-05-16T00:16:32;100920.94;;;12.34;100.00
54808;BME280;40708;50.364;7.550;2023-05-16T00:19:01;100927.13;;;12.35;100.00
54808;BME280;40708;50.364;7.550;2023-05-16T00:21:27;100931.59;;;12.25;100.00
54808;BME280;40708;50.364;7.550;2023-05-16T00:23:52;100945.75;;;12.24;100.00
54808;BME280;40708;50.364;7.550;2023-05-16T00:26:17;100956.41;;;12.38;100.00
54808;BME280;40708;50.364;7.550;2023-05-16T00:28:43;100950.19;;;12.24;100.00
54808;BME280;40708;50.364;7.550;2023-05-16T00:31:08;100974.13;;;12.24;100.00
54808;BME280;40708;50.364;7.550;2023-05-16T00:33:33;100983.88;;;12.22;100.00
54808;BME280;40708;50.364;7.550;2023-05-16T00:35:59;100985.69;;;12.36;100.00
54808;BME280;40708;50.364;7.550;2023-05-16T00:38:24;100990.97;;;12.24;100.00
54808;BME280;40708;50.364;7.550;2023-05-16T00:40:50;101004.28;;;12.24;100.00
54808;BME280;40708;50.364;7.550;2023-05-16T00:43:15;101014.03;;;12.27;100.00
54808;BME280;40708;50.364;7.550;2023-05-16T00:45:41;101029.09;;;12.19;100.00
54808;BME280;40708;50.364;7.550;2023-05-16T00:48:06;101043.25;;;12.09;100.00
54808;BME280;40708;50.364;7.550;2023-05-16T00:50:33;101060.00;;;11.91;100.00
54808;BME280;40708;50.364;7.550;2023-05-16T00:52:59;101071.53;;;11.91;100.00
54808;BME280;40708;50.364;7.550;2023-05-16T00:55:24;101084.78;;;11.79;100.00
54808;BME280;40708;50.364;7.550;2023-05-16T00:57:50;101116.66;;;11.76;100.00
54808;BME280;40708;50.364;7.550;2023-05-16T01:00:16;101127.34;;;11.85;100.00
54808;BME280;40708;50.364;7.550;2023-05-16T01:02:45;101149.34;;;11.68;100.00
54808;BME280;40708;50.364;7.550;2023-05-16T01:05:10;101179.41;;;11.59;100.00
54808;BME280;40708;50.364;7.550;2023-05-16T01:07:36;101199.75;;;11.56;100.00
54808;BME280;40708;50.364;7.550;2023-05-16T01:10:02;101223.66;;;11.56;100.00
54808;BME280;40708;50.364;7.550;2023-05-16T01:15:22;101246.69;;;11.52;100.00
54808;BME280;40708;50.364;7.550;2023-05-16T01:18:04;101255.53;;;11.53;100.00
54808;BME280;40708;50.364;7.550;2023-05-16T01:20:44;101258.03;;;11.39;100.00
54808;BME280;40708;50.364;7.550;2023-05-16T01:24:08;101268.84;;;11.54;100.00
54808;BME280;40708;50.364;7.550;2023-05-16T01:26:26;101259.91;;;11.46;100.00
54808;BME280;40708;50.364;7.550;2023-05-16T01:28:52;101255.31;;;11.30;100.00
54808;BME280;40708;50.364;7.550;2023-05-16T01:31:19;101268.63;;;11.33;100.00
54808;BME280;40708;50.364;7.550;2023-05-16T01:33:45;101275.63;;;11.28;100.00
54808;BME280;40708;50.364;7.550;2023-05-16T01:36:32;101277.53;;;11.40;100.00
54808;BME280;40708;50.364;7.550;2023-05-16T01:39:10;101272.09;;;11.26;100.00
54808;BME280;40708;50.364;7.550;2023-05-16T01:47:12;101287.09;;;11.22;100.00
54808;BME280;40708;50.364;7.550;2023-05-16T01:49:55;101292.41;;;11.22;100.00
54808;BME280;40708;50.364;7.550;2023-05-16T01:52:27;101313.72;;;11.27;100.00
54808;BME280;40708;50.364;7.550;2023-05-16T01:54:56;101319.91;;;11.26;100.00
54808;BME280;40708;50.364;7.550;2023-05-16T01:57:25;101338.38;;;11.15;100.00
54808;BME280;40708;50.364;7.550;2023-05-16T01:59:51;101374.59;;;11.10;100.00
54808;BME280;40708;50.364;7.550;2023-05-16T02:02:18;101399.38;;;11.09;100.00
54808;BME280;40708;50.364;7.550;2023-05-16T02:04:43;101436.50;;;11.05;100.00
54808;BME280;40708;50.364;7.550;2023-05-16T02:07:08;101443.56;;;11.04;100.00
54808;BME280;40708;50.364;7.550;2023-05-16T02:09:34;101479.78;;;10.98;100.00
54808;BME280;40708;50.364;7.550;2023-05-16T02:11:59;101501.72;;;10.88;100.00
54808;BME280;40708;50.364;7.550;2023-05-16T02:14:24;101519.34;;;10.81;100.00
54808;BME280;40708;50.364;7.550;2023-05-16T02:16:50;101538.88;;;10.86;100.00
54808;BME280;40708;50.364;7.550;2023-05-16T02:19:15;101554.63;;;10.77;100.00
54808;BME280;40708;50.364;7.550;2023-05-16T02:21:40;101567.13;;;10.83;100.00
54808;BME280;40708;50.364;7.550;2023-05-16T02:24:06;101583.06;;;10.83;100.00
54808;BME280;40708;50.364;7.550;2023-05-16T02:26:31;101595.47;;;10.84;100.00
54808;BME280;40708;50.364;7.550;2023-05-16T02:28:56;101611.41;;;10.84;100.00
54808;BME280;40708;50.364;7.550;2023-05-16T02:31:29;101623.78;;;10.83;100.00
54808;BME280;40708;50.364;7.550;2023-05-16T02:33:56;101629.00;;;10.79;100.00
54808;BME280;40708;50.364;7.550;2023-05-16T02:36:22;101635.94;;;10.70;100.00
54808;BME280;40708;50.364;7.550;2023-05-16T02:38:47;101650.00;;;10.66;100.00
54808;BME280;40708;50.364;7.550;2023-05-16T02:41:12;101678.38;;;10.69;100.00
54808;BME280;40708;50.364;7.550;2023-05-16T02:43:38;101696.88;;;10.66;100.00
54808;BME280;40708;50.364;7.550;2023-05-16T02:46:04;101709.38;;;10.70;100.00
54808;BME280;40708;50.364;7.550;2023-05-16T02:48:29;101723.50;;;10.69;100.00
54808;BME280;40708;50.364;7.550;2023-05-16T02:50:54;101726.91;;;10.63;100.00
54808;BME280;40708;50.364;7.550;2023-05-16T02:53:20;101759.66;;;10.64;100.00
54808;BME280;40708;50.364;7.550;2023-05-16T02:55:45;101770.28;;;10.65;100.00
54808;BME280;40708;50.364;7.550;2023-05-16T02:58:10;101779.00;;;10.57;100.00
54808;BME280;40708;50.364;7.550;2023-05-16T03:00:36;101798.56;;;10.62;100.00
54808;BME280;40708;50.364;7.550;2023-05-16T03:03:01;101807.38;;;10.61;100.00
54808;BME280;40708;50.364;7.550;2023-05-16T03:05:26;101821.47;;;10.58;100.00
54808;BME280;40708;50.364;7.550;2023-05-16T03:07:52;101833.00;;;10.60;100.00
54808;BME280;40708;50.364;7.550;2023-05-16T03:10:17;101839.22;;;10.61;100.00
54808;BME280;40708;50.364;7.550;2023-05-16T03:12:42;101848.22;;;10.67;100.00
54808;BME280;40708;50.364;7.550;2023-05-16T03:15:08;101850.69;;;10.60;100.00
54808;BME280;40708;50.364;7.550;2023-05-16T03:17:33;101867.59;;;10.63;100.00
54808;BME280;40708;50.364;7.550;2023-05-16T03:19:59;101884.38;;;10.62;100.00
54808;BME280;40708;50.364;7.550;2023-05-16T03:22:24;101878.13;;;10.60;100.00
54808;BME280;40708;50.364;7.550;2023-05-16T03:24:50;101890.56;;;10.63;100.00
54808;BME280;40708;50.364;7.550;2023-05-16T03:27:15;101904.88;;;10.69;100.00
54808;BME280;40708;50.364;7.550;2023-05-16T03:29:40;101903.28;;;10.76;100.00
54808;BME280;40708;50.364;7.550;2023-05-16T03:32:06;101894.50;;;10.79;100.00
54808;BME280;40708;50.364;7.550;2023-05-16T03:34:31;101898.00;;;10.77;100.00
54808;BME280;40708;50.364;7.550;2023-05-16T03:36:56;101878.50;;;10.77;100.00
54808;BME280;40708;50.364;7.550;2023-05-16T03:39:22;101875.91;;;10.79;100.00
54808;BME280;40708;50.364;7.550;2023-05-16T03:41:48;101858.94;;;10.72;100.00
54808;BME280;40708;50.364;7.550;2023-05-16T03:44:13;101847.47;;;10.73;100.00
54808;BME280;40708;50.364;7.550;2023-05-16T03:46:38;101835.03;;;10.72;100.00
54808;BME280;40708;50.364;7.550;2023-05-16T03:49:03;101823.44;;;10.68;100.00
54808;BME280;40708;50.364;7.550;2023-05-16T03:51:29;101817.22;;;10.66;100.00
54808;BME280;40708;50.364;7.550;2023-05-16T03:53:54;101806.59;;;10.66;100.00
54808;BME280;40708;50.364;7.550;2023-05-16T03:56:20;101792.66;;;10.76;100.00
54808;BME280;40708;50.364;7.550;2023-05-16T03:58:46;101783.81;;;10.76;100.00
54808;BME280;40708;50.364;7.550;2023-05-16T04:01:11;101766.00;;;10.70;100.00
54808;BME280;40708;50.364;7.550;2023-05-16T04:03:36;101769.50;;;10.69;100.00
54808;BME280;40708;50.364;7.550;2023-05-16T04:06:03;101769.44;;;10.66;100.00
54808;BME280;40708;50.364;7.550;2023-05-16T04:08:28;101770.28;;;10.64;100.00
54808;BME280;40708;50.364;7.550;2023-05-16T04:10:53;101763.22;;;10.66;100.00
54808;BME280;40708;50.364;7.550;2023-05-16T04:13:20;101771.19;;;10.64;100.00
54808;BME280;40708;50.364;7.550;2023-05-16T04:15:45;101760.69;;;10.70;100.00
54808;BME280;40708;50.364;7.550;2023-05-16T04:18:12;101770.38;;;10.68;100.00
54808;BME280;40708;50.364;7.550;2023-05-16T04:20:37;101757.69;;;10.55;100.00
54808;BME280;40708;50.364;7.550;2023-05-16T04:23:02;101770.06;;;10.55;100.00
54808;BME280;40708;50.364;7.550;2023-05-16T04:25:28;101765.53;;;10.49;100.00
54808;BME280;40708;50.364;7.550;2023-05-16T04:27:53;101767.03;;;10.38;100.00
54808;BME280;40708;50.364;7.550;2023-05-16T04:30:18;101783.78;;;10.34;100.00
54808;BME280;40708;50.364;7.550;2023-05-16T04:32:43;101790.63;;;10.25;100.00
54808;BME280;40708;50.364;7.550;2023-05-16T04:35:09;101796.97;;;10.31;100.00
54808;BME280;40708;50.364;7.550;2023-05-16T04:37:35;101800.44;;;10.29;100.00
54808;BME280;40708;50.364;7.550;2023-05-16T04:40:01;101803.00;;;10.24;100.00
54808;BME280;40708;50.364;7.550;2023-05-16T04:42:26;101819.88;;;10.28;100.00
54808;BME280;40708;50.364;7.550;2023-05-16T04:44:51;101821.50;;;10.23;100.00
54808;BME280;40708;50.364;7.550;2023-05-16T04:47:17;101819.53;;;10.14;100.00
54808;BME280;40708;50.364;7.550;2023-05-16T04:49:42;101820.56;;;10.19;100.00
54808;BME280;40708;50.364;7.550;2023-05-16T04:52:08;101824.91;;;10.17;100.00
54808;BME280;40708;50.364;7.550;2023-05-16T04:54:33;101827.38;;;10.11;100.00
54808;BME280;40708;50.364;7.550;2023-05-16T04:56:59;101830.84;;;10.07;100.00
54808;BME280;40708;50.364;7.550;2023-05-16T04:59:25;101829.31;;;10.15;100.00
54808;BME280;40708;50.364;7.550;2023-05-16T05:01:50;101843.47;;;10.15;100.00
54808;BME280;40708;50.364;7.550;2023-05-16T05:04:16;101829.03;;;10.06;100.00
54808;BME280;40708;50.364;7.550;2023-05-16T05:06:41;101838.78;;;10.07;100.00
54808;BME280;40708;50.364;7.550;2023-05-16T05:09:07;101848.56;;;10.09;100.00
54808;BME280;40708;50.364;7.550;2023-05-16T05:11:33;101841.34;;;10.02;100.00
54808;BME280;40708;50.364;7.550;2023-05-16T05:13:58;101827.19;;;10.02;100.00
54808;BME280;40708;50.364;7.550;2023-05-16T05:16:23;101836.34;;;10.13;100.00
54808;BME280;40708;50.364;7.550;2023-05-16T05:18:49;101819.44;;;10.11;100.00
54808;BME280;40708;50.364;7.550;2023-05-16T05:21:14;101810.38;;;10.03;100.00
54808;BME280;40708;50.364;7.550;2023-05-16T05:23:40;101802.50;;;10.04;100.00
54808;BME280;40708;50.364;7.550;2023-05-16T05:26:05;101814.81;;;10.02;100.00
54808;BME280;40708;50.364;7.550;2023-05-16T05:28:30;101821.91;;;10.03;100.00
54808;BME280;40708;50.364;7.550;2023-05-16T05:30:56;101812.75;;;9.91;100.00
54808;BME280;40708;50.364;7.550;2023-05-16T05:33:26;101807.63;;;9.98;100.00
54808;BME280;40708;50.364;7.550;2023-05-16T05:35:52;101796.94;;;9.94;100.00
54808;BME280;40708;50.364;7.550;2023-05-16T05:38:18;101791.13;;;10.10;100.00
54808;BME280;40708;50.364;7.550;2023-05-16T05:40:44;101759.16;;;10.02;100.00
54808;BME280;40708;50.364;7.550;2023-05-16T05:43:09;101746.81;;;10.06;100.00
54808;BME280;40708;50.364;7.550;2023-05-16T05:45:35;101728.25;;;10.06;100.00
54808;BME280;40708;50.364;7.550;2023-05-16T05:48:00;101721.53;;;10.19;100.00
54808;BME280;40708;50.364;7.550;2023-05-16T05:50:26;101712.50;;;10.12;100.00
54808;BME280;40708;50.364;7.550;2023-05-16T05:52:51;101728.50;;;10.13;100.00
54808;BME280;40708;50.364;7.550;2023-05-16T05:55:16;101707.13;;;10.09;100.00
54808;BME280;40708;50.364;7.550;2023-05-16T05:57:42;101689.25;;;10.00;100.00
54808;BME280;40708;50.364;7.550;2023-05-16T06:00:08;101675.69;;;9.87;100.00
54808;BME280;40708;50.364;7.550;2023-05-16T06:02:34;101667.13;;;9.98;100.00
54808;BME280;40708;50.364;7.550;2023-05-16T06:05:00;101659.03;;;9.92;100.00
54808;BME280;40708;50.364;7.550;2023-05-16T06:07:25;101651.16;;;9.95;100.00
54808;BME280;40708;50.364;7.550;2023-05-16T06:09:50;101658.16;;;9.92;100.00
54808;BME280;40708;50.364;7.550;2023-05-16T06:12:16;101652.03;;;9.94;100.00
54808;BME280;40708;50.364;7.550;2023-05-16T06:14:41;101650.00;;;9.84;100.00
54808;BME280;40708;50.364;7.550;2023-05-16T06:17:07;101653.47;;;9.82;100.00
54808;BME280;40708;50.364;7.550;2023-05-16T06:19:32;101665.97;;;9.87;100.00
54808;BME280;40708;50.364;7.550;2023-05-16T06:21:57;101651.81;;;9.85;100.00
54808;BME280;40708;50.364;7.550;2023-05-16T06:24:22;101656.06;;;9.79;100.00
54808;BME280;40708;50.364;7.550;2023-05-16T06:26:48;101666.78;;;9.83;100.00
54808;BME280;40708;50.364;7.550;2023-05-16T06:29:14;101683.88;;;9.97;100.00
54808;BME280;40708;50.364;7.550;2023-05-16T06:31:39;101668.88;;;9.98;100.00
54808;BME280;40708;50.364;7.550;2023-05-16T06:34:05;101675.06;;;9.97;100.00
54808;BME280;40708;50.364;7.550;2023-05-16T06:36:30;101670.59;;;9.96;100.00
54808;BME280;40708;50.364;7.550;2023-05-16T06:38:56;101664.22;;;9.88;100.00
54808;BME280;40708;50.364;7.550;2023-05-16T06:41:21;101653.69;;;9.91;100.00
54808;BME280;40708;50.364;7.550;2023-05-16T06:43:46;101644.84;;;9.90;100.00
54808;BME280;40708;50.364;7.550;2023-05-16T06:46:12;101635.84;;;9.84;100.00
54808;BME280;40708;50.364;7.550;2023-05-16T06:48:37;101636.81;;;9.86;100.00
54808;BME280;40708;50.364;7.550;2023-05-16T06:51:02;101651.13;;;9.94;100.00
54808;BME280;40708;50.364;7.550;2023-05-16T06:53:28;101647.56;;;9.92;100.00
54808;BME280;40708;50.364;7.550;2023-05-16T06:55:53;101634.31;;;9.93;100.00
54808;BME280;40708;50.364;7.550;2023-05-16T06:58:19;101632.41;;;9.86;100.00
54808;BME280;40708;50.364;7.550;2023-05-16T07:00:44;101608.25;;;9.74;100.00
54808;BME280;40708;50.364;7.550;2023-05-16T07:03:09;101610.78;;;9.68;100.00
54808;BME280;40708;50.364;7.550;2023-05-16T07:05:35;101626.59;;;9.65;100.00
54808;BME280;40708;50.364;7.550;2023-05-16T07:08:00;101624.69;;;9.58;100.00
54808;BME280;40708;50.364;7.550;2023-05-16T07:10:25;101620.06;;;9.49;100.00
54808;BME280;40708;50.364;7.550;2023-05-16T07:12:51;101642.91;;;9.44;100.00
54808;BME280;40708;50.364;7.550;2023-05-16T07:15:16;101663.16;;;9.42;100.00
54808;BME280;40708;50.364;7.550;2023-05-16T07:17:42;101668.38;;;9.39;100.00
54808;BME280;40708;50.364;7.550;2023-05-16T07:20:07;101682.38;;;9.34;100.00
54808;BME280;40708;50.364;7.550;2023-05-16T07:22:37;101705.00;;;9.21;100.00
54808;BME280;40708;50.364;7.550;2023-05-16T07:25:03;101725.50;;;9.30;100.00
54808;BME280;40708;50.364;7.550;2023-05-16T07:27:28;101763.31;;;9.24;100.00
54808;BME280;40708;50.364;7.550;2023-05-16T07:29:54;101792.53;;;9.27;100.00
54808;BME280;40708;50.364;7.550;2023-05-16T07:32:20;101802.19;;;9.25;100.00
54808;BME280;40708;50.364;7.550;2023-05-16T07:34:45;101802.22;;;9.27;100.00
54808;BME280;40708;50.364;7.550;2023-05-16T07:37:11;101792.53;;;9.27;100.00
54808;BME280;40708;50.364;7.550;2023-05-16T07:39:39;101771.97;;;9.17;100.00
54808;BME280;40708;50.364;7.550;2023-05-16T07:42:08;101772.06;;;9.20;100.00
54808;BME280;40708;50.364;7.550;2023-05-16T07:44:34;101752.59;;;9.18;100.00
54808;BME280;40708;50.364;7.550;2023-05-16T07:46:59;101730.53;;;9.19;100.00
54808;BME280;40708;50.364;7.550;2023-05-16T07:49:25;101722.59;;;9.19;100.00
54808;BME280;40708;50.364;7.550;2023-05-16T07:51:50;101708.81;;;9.32;100.00
54808;BME280;40708;50.364;7.550;2023-05-16T07:54:16;101682.56;;;9.41;100.00
54808;BME280;40708;50.364;7.550;2023-05-16T07:56:41;101658.16;;;9.54;100.00
54808;BME280;40708;50.364;7.550;2023-05-16T07:59:06;101623.09;;;9.66;100.00
54808;BME280;40708;50.364;7.550;2023-05-16T08:01:32;101594.25;;;9.80;100.00
54808;BME280;40708;50.364;7.550;2023-05-16T08:03:57;101560.09;;;9.93;100.00
54808;BME280;40708;50.364;7.550;2023-05-16T08:06:22;101481.59;;;10.01;100.00
54808;BME280;40708;50.364;7.550;2023-05-16T08:08:48;101412.97;;;10.16;100.00
54808;BME280;40708;50.364;7.550;2023-05-16T08:11:13;101345.34;;;10.44;100.00
54808;BME280;40708;50.364;7.550;2023-05-16T08:13:38;101254.44;;;10.56;100.00
54808;BME280;40708;50.364;7.550;2023-05-16T08:16:04;101197.16;;;10.74;100.00
54808;BME280;40708;50.364;7.550;2023-05-16T08:18:29;101162.94;;;11.00;100.00
54808;BME280;40708;50.364;7.550;2023-05-16T08:20:55;101168.38;;;11.14;100.00
54808;BME280;40708;50.364;7.550;2023-05-16T08:23:20;101169.19;;;11.07;100.00
54808;BME280;40708;50.364;7.550;2023-05-16T08:25:45;101177.41;;;11.32;100.00
54808;BME280;40708;50.364;7.550;2023-05-16T08:28:11;101179.69;;;11.99;100.00
54808;BME280;40708;50.364;7.550;2023-05-16T08:30:36;101095.75;;;12.58;100.00
54808;BME280;40708;50.364;7.550;2023-05-16T08:33:01;101043.44;;;13.22;100.00
54808;BME280;40708;50.364;7.550;2023-05-16T08:35:29;100886.97;;;13.57;100.00
54808;BME280;40708;50.364;7.550;2023-05-16T08:37:55;100858.44;;;13.76;100.00
54808;BME280;40708;50.364;7.550;2023-05-16T08:40:21;100835.34;;;13.75;100.00
54808;BME280;40708;50.364;7.550;2023-05-16T08:42:49;100816.09;;;14.51;100.00
54808;BME280;40708;50.364;7.550;2023-05-16T08:45:14;100800.28;;;15.10;100.00
54808;BME280;40708;50.364;7.550;2023-05-16T08:47:41;100797.44;;;15.22;100.00
54808;BME280;40708;50.364;7.550;2023-05-16T08:50:09;100784.19;;;15.16;100.00
54808;BME280;40708;50.364;7.550;2023-05-16T08:52:37;100791.88;;;15.40;100.00
54808;BME280;40708;50.364;7.550;2023-05-16T08:55:03;100774.53;;;15.05;100.00
54808;BME280;40708;50.364;7.550;2023-05-16T08:57:35;100789.00;;;14.85;100.00
54808;BME280;40708;50.364;7.550;2023-05-16T09:00:01;100805.06;;;13.81;100.00
54808;BME280;40708;50.364;7.550;2023-05-16T09:02:31;100817.69;;;13.57;100.00
54808;BME280;40708;50.364;7.550;2023-05-16T09:04:57;100832.78;;;13.61;100.00
54808;BME280;40708;50.364;7.550;2023-05-16T09:07:23;100828.47;;;13.30;100.00
54808;BME280;40708;50.364;7.550;2023-05-16T09:09:49;100837.47;;;13.09;100.00
54808;BME280;40708;50.364;7.550;2023-05-16T09:12:14;100826.78;;;13.03;100.00
54808;BME280;40708;50.364;7.550;2023-05-16T09:14:40;100815.78;;;13.73;100.00
54808;BME280;40708;50.364;7.550;2023-05-16T09:17:07;100797.00;;;13.90;100.00
54808;BME280;40708;50.364;7.550;2023-05-16T09:19:42;100793.31;;;14.10;100.00
54808;BME280;40708;50.364;7.550;2023-05-16T09:22:11;100789.06;;;14.79;100.00
54808;BME280;40708;50.364;7.550;2023-05-16T09:24:42;100780.84;;;14.98;100.00
54808;BME280;40708;50.364;7.550;2023-05-16T09:27:09;100768.16;;;15.77;100.00
54808;BME280;40708;50.364;7.550;2023-05-16T09:29:35;100769.75;;;15.90;100.00
54808;BME280;40708;50.364;7.550;2023-05-16T09:32:08;100762.78;;;15.80;100.00
54808;BME280;40708;50.364;7.550;2023-05-16T09:34:37;100764.66;;;15.74;100.00
54808;BME280;40708;50.364;7.550;2023-05-16T09:37:03;100765.44;;;15.80;100.00
54808;BME280;40708;50.364;7.550;2023-05-16T09:39:29;100759.94;;;15.28;100.00
54808;BME280;40708;50.364;7.550;2023-05-16T09:41:54;100763.44;;;15.35;100.00
54808;BME280;40708;50.364;7.550;2023-05-16T09:44:19;100751.00;;;15.90;100.00
54808;BME280;40708;50.364;7.550;2023-05-16T09:46:45;100751.50;;;16.64;100.00
54808;BME280;40708;50.364;7.550;2023-05-16T09:49:11;100743.00;;;16.39;100.00
54808;BME280;40708;50.364;7.550;2023-05-16T09:51:36;100764.66;;;15.75;100.00
54808;BME280;40708;50.364;7.550;2023-05-16T09:54:06;100725.69;;;16.11;100.00
54808;BME280;40708;50.364;7.550;2023-05-16T09:56:32;100746.81;;;15.74;100.00
54808;BME280;40708;50.364;7.550;2023-05-16T09:58:58;100747.00;;;15.64;100.00
54808;BME280;40708;50.364;7.550;2023-05-16T10:01:24;100751.34;;;15.69;100.00
54808;BME280;40708;50.364;7.550;2023-05-16T10:03:50;100756.75;;;15.66;100.00
54808;BME280;40708;50.364;7.550;2023-05-16T10:06:15;100751.16;;;15.83;100.00
54808;BME280;40708;50.364;7.550;2023-05-16T10:08:42;100753.19;;;15.67;100.00
54808;BME280;40708;50.364;7.550;2023-05-16T10:11:08;100750.78;;;16.04;100.00
54808;BME280;40708;50.364;7.550;2023-05-16T10:13:35;100741.63;;;16.17;100.00
54808;BME280;40708;50.364;7.550;2023-05-16T10:16:11;100735.41;;;16.15;100.00
54808;BME280;40708;50.364;7.550;2023-05-16T10:18:37;100731.34;;;15.93;97.06
54808;BME280;40708;50.364;7.550;2023-05-16T10:21:06;100750.97;;;15.95;99.43
54808;BME280;40708;50.364;7.550;2023-05-16T10:23:32;100742.78;;;16.02;100.00
54808;BME280;40708;50.364;7.550;2023-05-16T10:26:01;100741.63;;;16.17;100.00
54808;BME280;40708;50.364;7.550;2023-05-16T10:28:28;100734.81;;;16.48;100.00
54808;BME280;40708;50.364;7.550;2023-05-16T10:30:54;100740.31;;;16.41;92.73
54808;BME280;40708;50.364;7.550;2023-05-16T10:33:19;100746.31;;;16.06;100.00
54808;BME280;40708;50.364;7.550;2023-05-16T10:35:45;100744.63;;;15.99;100.00
54808;BME280;40708;50.364;7.550;2023-05-16T10:38:13;100744.16;;;16.26;100.00
54808;BME280;40708;50.364;7.550;2023-05-16T10:40:39;100742.50;;;16.66;100.00
54808;BME280;40708;50.364;7.550;2023-05-16T10:43:06;100735.53;;;16.58;99.36
54808;BME280;40708;50.364;7.550;2023-05-16T10:45:33;100734.63;;;16.59;100.00
54808;BME280;40708;50.364;7.550;2023-05-16T10:48:03;100739.09;;;16.58;92.91
54808;BME280;40708;50.364;7.550;2023-05-16T10:50:36;100732.97;;;16.50;96.83
54808;BME280;40708;50.364;7.550;2023-05-16T10:53:31;100736.16;;;16.23;100.00
54808;BME280;40708;50.364;7.550;2023-05-16T11:17:01;100728.72;;;16.39;100.00
54808;BME280;40708;50.364;7.550;2023-05-16T11:19:43;100703.03;;;15.81;91.09
54808;BME280;40708;50.364;7.550;2023-05-16T11:24:49;100724.28;;;15.89;91.51
54808;BME280;40708;50.364;7.550;2023-05-16T11:27:32;100716.06;;;15.99;89.61
54808;BME280;40708;50.364;7.550;2023-05-16T11:32:39;100717.81;;;16.51;87.03
54808;BME280;40708;50.364;7.550;2023-05-16T11:35:06;100728.03;;;16.29;78.64
54808;BME280;40708;50.364;7.550;2023-05-16T11:37:33;100722.13;;;16.59;80.28
54808;BME280;40708;50.364;7.550;2023-05-16T11:40:04;100724.31;;;16.36;72.26
54808;BME280;40708;50.364;7.550;2023-05-16T11:42:36;100717.44;;;16.71;77.23
54808;BME280;40708;50.364;7.550;2023-05-16T11:45:10;100718.69;;;16.53;74.79
54808;BME280;40708;50.364;7.550;2023-05-16T11:47:39;100720.47;;;16.54;73.71
54808;BME280;40708;50.364;7.550;2023-05-16T11:50:15;100726.72;;;16.51;75.80
54808;BME280;40708;50.364;7.550;2023-05-16T11:52:46;100720.69;;;16.40;84.02
54808;BME280;40708;50.364;7.550;2023-05-16T11:55:13;100720.28;;;16.14;76.36
54808;BME280;40708;50.364;7.550;2023-05-16T11:57:40;100717.00;;;15.97;76.26
54808;BME280;40708;50.364;7.550;2023-05-16T12:00:16;100724.75;;;16.12;83.74
54808;BME280;40708;50.364;7.550;2023-05-16T12:02:46;100728.03;;;16.29;86.42
54808;BME280;40708;50.364;7.550;2023-05-16T12:05:13;100725.31;;;16.32;79.55
54808;BME280;40708;50.364;7.550;2023-05-16T12:07:39;100716.72;;;16.61;82.80
54808;BME280;40708;50.364;7.550;2023-05-16T12:10:08;100717.22;;;16.80;73.56
54808;BME280;40708;50.364;7.550;2023-05-16T12:12:35;100695.31;;;16.61;67.43
54808;BME280;40708;50.364;7.550;2023-05-16T12:15:02;100720.69;;;16.39;70.70
54808;BME280;40708;50.364;7.550;2023-05-16T12:17:28;100737.00;;;16.74;70.90
54808;BME280;40708;50.364;7.550;2023-05-16T12:19:54;100734.97;;;16.87;65.83
54808;BME280;40708;50.364;7.550;2023-05-16T12:22:19;100725.66;;;16.61;73.32
54808;BME280;40708;50.364;7.550;2023-05-16T12:24:45;100733.59;;;16.66;72.84
54808;BME280;40708;50.364;7.550;2023-05-16T12:27:10;100726.94;;;16.85;70.10
54808;BME280;40708;50.364;7.550;2023-05-16T12:29:36;100734.63;;;16.59;73.56
54808;BME280;40708;50.364;7.550;2023-05-16T12:32:02;100738.16;;;16.61;63.75
54808;BME280;40708;50.364;7.550;2023-05-16T12:34:28;100738.78;;;16.26;69.98
54808;BME280;40708;50.364;7.550;2023-05-16T12:36:54;100733.09;;;16.44;71.02
54808;BME280;40708;50.364;7.550;2023-05-16T12:39:19;100739.00;;;16.64;71.02
54808;BME280;40708;50.364;7.550;2023-05-16T12:41:45;100730.00;;;16.67;69.01
54808;BME280;40708;50.364;7.550;2023-05-16T12:44:18;100731.91;;;16.62;72.72
54808;BME280;40708;50.364;7.550;2023-05-16T12:46:49;100739.53;;;16.36;75.36
54808;BME280;40708;50.364;7.550;2023-05-16T12:49:18;100742.00;;;15.96;72.58
54808;BME280;40708;50.364;7.550;2023-05-16T12:51:51;100743.88;;;15.91;72.59
54808;BME280;40708;50.364;7.550;2023-05-16T12:54:17;100729.28;;;16.59;74.02
54808;BME280;40708;50.364;7.550;2023-05-16T12:56:43;100723.66;;;16.73;62.79
54808;BME280;40708;50.364;7.550;2023-05-16T12:59:09;100743.84;;;16.43;64.05
54808;BME280;40708;50.364;7.550;2023-05-16T13:01:35;100742.72;;;16.56;66.21
54808;BME280;40708;50.364;7.550;2023-05-16T13:04:00;100746.72;;;16.32;64.59
54808;BME280;40708;50.364;7.550;2023-05-16T13:06:26;100752.88;;;16.37;68.43
54808;BME280;40708;50.364;7.550;2023-05-16T13:08:52;100759.41;;;16.21;70.92
54808;BME280;40708;50.364;7.550;2023-05-16T13:11:18;100755.59;;;16.36;70.14
54808;BME280;40708;50.364;7.550;2023-05-16T13:13:43;100751.22;;;16.79;58.93
54808;BME280;40708;50.364;7.550;2023-05-16T13:16:09;100758.09;;;16.92;58.61